Time;durP1;ratioP1;P1;durP2;ratioP2;P2;SDS_P1;SDS_P2;PMS_P1;PMS_P2;Temp;Humidity;BMP_temperature;BMP_pressure;BME280_temperature;BME280_humidity;BME280_pressure;Samples;Min_cycle;Max_cycle;Signal;HPM_P1;HPM_P2
2024/03/07 00:01:47;;;;;;;0.40;0.20;;;1.80;99.90;;;;;;20870122;28;21275;-42
2024/03/07 00:12:08;;;;;;;0.40;0.30;;;1.90;99.90;;;;;;20393972;28;20137;-43
2024/03/07 00:22:10;;;;;;;1.10;0.20;;;1.90;99.90;;;;;;20443033;28;20212;-43
2024/03/07 00:32:13;;;;;;;2.38;0.20;;;1.70;99.90;;;;;;20434425;28;21195;-46
2024/03/07 00:42:15;;;;;;;0.20;0.20;;;1.80;99.90;;;;;;20456750;28;20551;-46
2024/03/07 00:52:17;;;;;;;0.43;0.13;;;1.70;99.90;;;;;;20703214;28;20785;-42
2024/03/07 01:02:19;;;;;;;60.42;4.85;;;1.40;99.90;;;;;;20714411;28;20250;-42
2024/03/07 01:12:23;;;;;;;0.03;0.00;;;1.30;99.90;;;;;;20715126;28;20120;-42
2024/03/07 01:22:26;;;;;;;0.40;0.10;;;1.30;99.90;;;;;;20711626;28;20127;-43
2024/03/07 01:32:28;;;;;;;0.30;0.13;;;1.40;99.90;;;;;;20711761;28;20115;-42
2024/03/07 01:42:30;;;;;;;0.57;0.10;;;1.40;99.90;;;;;;20772287;28;20170;-43
2024/03/07 01:52:32;;;;;;;0.52;0.20;;;1.60;99.90;;;;;;20875259;28;20734;-42
2024/03/07 02:02:34;;;;;;;2.00;0.10;;;1.60;99.90;;;;;;20875696;28;20717;-42
2024/03/07 02:12:38;;;;;;;0.13;0.10;;;1.60;99.90;;;;;;20838346;28;20131;-42
2024/03/07 02:22:40;;;;;;;0.95;0.20;;;1.70;99.90;;;;;;20854443;28;20260;-42
2024/03/07 02:32:42;;;;;;;0.10;0.10;;;1.80;99.90;;;;;;20869101;28;20152;-46
2024/03/07 02:42:44;;;;;;;0.43;0.15;;;1.70;99.90;;;;;;20877169;28;21306;-44
2024/03/07 02:52:46;;;;;;;0.10;0.10;;;1.80;99.90;;;;;;20875198;28;20074;-42
2024/03/07 03:02:48;;;;;;;0.35;0.10;;;1.60;99.90;;;;;;20871235;28;20181;-43
2024/03/07 03:12:50;;;;;;;0.20;0.10;;;1.50;99.90;;;;;;20872200;28;20063;-43
2024/03/07 03:22:55;;;;;;;0.20;0.10;;;1.40;99.90;;;;;;20852343;28;20164;-43
2024/03/07 03:32:56;;;;;;;0.10;0.10;;;1.20;99.90;;;;;;20871549;28;20075;-42
2024/03/07 03:42:58;;;;;;;0.43;0.10;;;1.10;99.90;;;;;;20870131;28;20907;-42
2024/03/07 03:53:01;;;;;;;0.10;0.03;;;1.00;99.90;;;;;;20883033;28;20114;-42
2024/03/07 04:03:03;;;;;;;2.60;0.10;;;1.00;99.90;;;;;;20860764;28;20704;-42
2024/03/07 04:13:05;;;;;;;0.57;0.10;;;1.30;99.90;;;;;;20632179;28;22415;-42
2024/03/07 04:23:07;;;;;;;0.75;0.10;;;1.30;99.90;;;;;;20670845;28;20179;-42
2024/03/07 04:33:08;;;;;;;0.52;0.17;;;0.90;99.90;;;;;;20648358;28;20136;-41
2024/03/07 04:43:10;;;;;;;0.30;0.10;;;0.60;99.90;;;;;;20697904;28;20181;-43
2024/03/07 04:53:12;;;;;;;0.95;0.10;;;0.70;99.90;;;;;;20873265;28;20067;-42
2024/03/07 05:03:14;;;;;;;0.38;0.15;;;0.70;99.90;;;;;;20874193;28;21127;-41
2024/03/07 05:13:16;;;;;;;0.60;0.10;;;0.50;99.90;;;;;;20872448;28;20154;-42
2024/03/07 05:23:17;;;;;;;2.05;0.20;;;0.30;99.90;;;;;;20871950;28;20193;-41
2024/03/07 05:33:21;;;;;;;0.30;0.20;;;0.40;99.90;;;;;;20869458;28;20166;-41
2024/03/07 05:43:23;;;;;;;0.35;0.20;;;0.40;99.90;;;;;;20824395;28;1312246;-43
2024/03/07 05:53:25;;;;;;;0.63;0.22;;;0.50;99.90;;;;;;20875521;28;20191;-55
2024/03/07 06:03:26;;;;;;;0.70;0.20;;;0.70;99.90;;;;;;20871898;28;21955;-41
2024/03/07 06:13:28;;;;;;;2.13;0.40;;;0.90;99.90;;;;;;20871556;28;20071;-41
2024/03/07 06:23:30;;;;;;;1.38;0.35;;;1.00;99.90;;;;;;20866573;28;20168;-40
2024/03/07 06:33:32;;;;;;;0.60;0.30;;;1.20;99.90;;;;;;20848757;28;20071;-40
2024/03/07 06:43:34;;;;;;;0.45;0.30;;;1.50;99.90;;;;;;20861582;28;21138;-40
2024/03/07 06:53:35;;;;;;;1.50;0.50;;;1.70;99.90;;;;;;20867646;28;21113;-41
2024/03/07 07:03:37;;;;;;;0.28;0.20;;;2.20;99.90;;;;;;20864124;28;21028;-52
2024/03/07 07:13:39;;;;;;;0.40;0.20;;;2.50;99.90;;;;;;20864312;28;21247;-41
2024/03/07 07:23:41;;;;;;;0.50;0.25;;;2.80;99.90;;;;;;20865016;28;20178;-41
2024/03/07 07:33:43;;;;;;;0.40;0.13;;;3.20;99.90;;;;;;20825363;28;21235;-40
2024/03/07 07:43:44;;;;;;;0.47;0.20;;;3.80;99.90;;;;;;20838527;28;20134;-41
2024/03/07 07:53:46;;;;;;;0.32;0.25;;;4.20;99.90;;;;;;20835497;28;20185;-42
2024/03/07 08:03:48;;;;;;;0.30;0.20;;;4.50;99.90;;;;;;20856630;28;20139;-41
2024/03/07 08:13:50;;;;;;;2.13;0.20;;;4.50;99.90;;;;;;20862145;28;20961;-41
2024/03/07 08:23:54;;;;;;;0.38;0.15;;;4.00;99.90;;;;;;20855561;28;20127;-41
2024/03/07 08:33:56;;;;;;;1.20;0.30;;;4.00;99.90;;;;;;20859668;28;20213;-42
2024/03/07 08:43:58;;;;;;;0.30;0.20;;;5.40;99.90;;;;;;20872706;28;20163;-43
2024/03/07 08:54:00;;;;;;;1.55;0.50;;;6.90;99.90;;;;;;20874713;28;20066;-40
2024/03/07 09:04:02;;;;;;;0.95;0.20;;;7.30;99.90;;;;;;20876184;28;20174;-41
2024/03/07 09:14:09;;;;;;;0.57;0.20;;;8.20;99.90;;;;;;20855316;28;20736;-41
2024/03/07 09:24:11;;;;;;;0.70;0.20;;;8.20;99.90;;;;;;20874689;28;20335;-43
2024/03/07 09:34:16;;;;;;;0.30;0.20;;;8.20;99.90;;;;;;20756436;28;20170;-41
2024/03/07 09:44:22;;;;;;;0.20;0.20;;;8.30;99.90;;;;;;20772039;28;20237;-41
2024/03/07 09:54:24;;;;;;;1.95;0.20;;;8.50;99.90;;;;;;20767039;28;20055;-40
2024/03/07 10:04:31;;;;;;;0.55;0.20;;;8.70;99.90;;;;;;20828013;28;20680;-41
2024/03/07 10:14:33;;;;;;;0.70;0.30;;;8.80;99.90;;;;;;20866975;28;20062;-41
2024/03/07 10:24:34;;;;;;;1.38;0.70;;;9.20;99.90;;;;;;20869685;28;20177;-41
2024/03/07 10:34:36;;;;;;;2.88;1.75;;;9.20;99.90;;;;;;20867077;28;20123;-41
2024/03/07 10:44:43;;;;;;;3.10;1.88;;;9.20;99.90;;;;;;20866986;28;20785;-41
2024/03/07 10:55:05;;;;;;;2.97;1.98;;;9.20;99.90;;;;;;20865723;28;20051;-41
2024/03/07 11:05:12;;;;;;;4.57;2.10;;;9.10;99.90;;;;;;20864003;28;20188;-41
2024/03/07 11:15:21;;;;;;;3.75;2.22;;;8.80;99.90;;;;;;20843050;28;21107;-41
2024/03/07 11:25:26;;;;;;;3.70;2.30;;;8.60;99.90;;;;;;20858010;28;20178;-41
2024/03/07 11:35:37;;;;;;;4.43;2.88;;;8.00;99.90;;;;;;20860503;28;20305;-43
2024/03/07 11:45:44;;;;;;;7.05;3.67;;;7.30;99.90;;;;;;20860930;28;20256;-42
2024/03/07 11:55:50;;;;;;;10.48;4.60;;;6.80;99.90;;;;;;20841641;28;20233;-41
2024/03/07 12:05:56;;;;;;;9.02;4.78;;;6.40;99.90;;;;;;20861401;28;20079;-42
2024/03/07 12:16:01;;;;;;;7.15;4.90;;;6.00;99.90;;;;;;20875039;28;20167;-40
2024/03/07 12:26:04;;;;;;;9.93;5.30;;;5.60;99.90;;;;;;20878469;28;20218;-41
2024/03/07 12:36:07;;;;;;;10.02;5.75;;;5.30;99.90;;;;;;20879083;28;20071;-41
2024/03/07 12:46:17;;;;;;;7.68;4.30;;;5.00;99.90;;;;;;20875594;28;20162;-41
2024/03/07 12:56:19;;;;;;;10.00;4.90;;;4.90;99.90;;;;;;20874117;28;20469;-40
2024/03/07 13:06:25;;;;;;;8.10;4.43;;;4.90;99.90;;;;;;20857967;28;20367;-40
2024/03/07 13:16:27;;;;;;;9.02;5.00;;;5.20;99.90;;;;;;20873028;28;21585;-41
2024/03/07 13:26:32;;;;;;;7.93;4.68;;;5.20;99.90;;;;;;20873440;28;21799;-40
2024/03/07 13:36:37;;;;;;;7.60;4.35;;;5.30;99.90;;;;;;20868290;28;20087;-41
2024/03/07 13:46:40;;;;;;;7.20;3.55;;;5.60;99.90;;;;;;20868481;28;20100;-41
2024/03/07 13:57:14;;;;;;;6.22;3.30;;;5.50;99.90;;;;;;20836792;28;20784;-41
2024/03/07 14:07:43;;;;;;;7.55;3.10;;;5.60;99.90;;;;;;20871499;28;20213;-41
2024/03/07 14:18:09;;;;;;;5.45;3.30;;;6.10;99.90;;;;;;20850283;28;20461;-49
2024/03/07 14:28:23;;;;;;;4.67;3.00;;;6.20;99.90;;;;;;20868315;28;20858;-42
2024/03/07 14:38:50;;;;;;;5.32;2.95;;;6.20;99.90;;;;;;20685657;28;21251;-41
2024/03/07 14:48:51;;;;;;;6.07;3.22;;;6.10;99.90;;;;;;20685703;28;20139;-41
2024/03/07 14:58:54;;;;;;;8.57;3.40;;;5.70;99.90;;;;;;20683326;28;20103;-41
2024/03/07 15:08:55;;;;;;;6.20;3.53;;;5.30;99.90;;;;;;20832580;28;20159;-41
2024/03/07 15:19:00;;;;;;;6.30;3.55;;;5.00;99.90;;;;;;20862236;28;20511;-41
2024/03/07 15:29:02;;;;;;;7.35;3.88;;;4.80;99.90;;;;;;20843021;28;20122;-41
2024/03/07 15:39:15;;;;;;;7.25;3.83;;;4.60;99.90;;;;;;20859902;28;20220;-43
2024/03/07 15:49:17;;;;;;;9.27;4.50;;;4.40;99.90;;;;;;20862057;28;20169;-41
2024/03/07 15:59:19;;;;;;;7.10;4.40;;;4.20;99.90;;;;;;20863738;28;20784;-41
2024/03/07 16:09:22;;;;;;;8.80;4.90;;;3.90;99.90;;;;;;20876558;28;20240;-41
2024/03/07 16:19:25;;;;;;;8.25;4.70;;;3.80;99.90;;;;;;20880304;28;20187;-42
2024/03/07 16:29:27;;;;;;;7.22;4.78;;;3.70;99.90;;;;;;20876921;28;20169;-43
2024/03/07 16:39:31;;;;;;;10.20;5.43;;;3.60;99.90;;;;;;20877490;28;21490;-41
2024/03/07 16:49:33;;;;;;;6.80;4.90;;;3.50;99.90;;;;;;20875171;28;20048;-40
2024/03/07 16:59:38;;;;;;;8.57;4.85;;;3.40;99.90;;;;;;20875095;28;21119;-41
2024/03/07 17:09:41;;;;;;;7.63;5.13;;;3.30;99.90;;;;;;20877514;28;20280;-41
2024/03/07 17:19:43;;;;;;;8.88;5.50;;;3.30;99.90;;;;;;20875708;28;20225;-41
2024/03/07 17:29:45;;;;;;;8.65;5.97;;;3.20;99.90;;;;;;20873394;28;20126;-40
2024/03/07 17:39:55;;;;;;;9.18;5.53;;;3.20;99.90;;;;;;20872286;28;20130;-41
2024/03/07 17:49:58;;;;;;;11.25;6.07;;;3.10;99.90;;;;;;20874215;28;20519;-41
2024/03/07 18:00:00;;;;;;;13.95;6.38;;;3.00;99.90;;;;;;20870387;28;20182;-41
2024/03/07 18:10:12;;;;;;;11.63;7.95;;;3.00;99.90;;;;;;20871129;28;21170;-41
2024/03/07 18:20:17;;;;;;;13.02;7.60;;;3.00;99.90;;;;;;20869895;28;20710;-41
2024/03/07 18:30:19;;;;;;;10.00;7.20;;;3.00;99.90;;;;;;20853738;28;21178;-41
2024/03/07 18:40:22;;;;;;;10.60;7.95;;;2.90;99.90;;;;;;20871835;28;20075;-41
2024/03/07 18:50:26;;;;;;;10.50;7.15;;;3.00;99.90;;;;;;20866128;28;20839;-41
2024/03/07 19:00:32;;;;;;;10.10;8.18;;;3.00;99.90;;;;;;20866861;28;21074;-41
2024/03/07 19:10:34;;;;;;;12.85;8.35;;;3.10;99.90;;;;;;20861823;28;20165;-43
2024/03/07 19:20:39;;;;;;;13.27;9.23;;;3.20;99.90;;;;;;20866271;28;20075;-41
2024/03/07 19:30:52;;;;;;;12.40;8.60;;;3.20;99.90;;;;;;20870138;28;20067;-41
2024/03/07 19:40:55;;;;;;;14.63;10.02;;;3.20;99.90;;;;;;20862499;28;20919;-41
2024/03/07 19:50:57;;;;;;;16.27;11.27;;;3.20;99.90;;;;;;20869184;28;20171;-42
2024/03/07 20:01:02;;;;;;;18.08;11.32;;;3.20;99.90;;;;;;20846099;28;20059;-41
2024/03/07 20:11:27;;;;;;;12.75;9.15;;;3.20;99.90;;;;;;20764552;28;20620;-43
2024/03/07 20:21:29;;;;;;;15.77;10.77;;;3.20;99.90;;;;;;20767890;28;20879;-41
2024/03/07 20:31:31;;;;;;;15.13;10.82;;;3.20;99.90;;;;;;20754430;28;20880;-41
2024/03/07 20:41:33;;;;;;;20.42;12.35;;;3.20;99.90;;;;;;20858442;28;20161;-41
2024/03/07 20:51:36;;;;;;;17.60;12.70;;;3.20;99.90;;;;;;20876229;28;21204;-41
2024/03/07 21:01:43;;;;;;;15.77;11.77;;;3.20;99.90;;;;;;20878906;28;20717;-41
2024/03/07 21:11:45;;;;;;;16.42;11.88;;;3.20;99.90;;;;;;20873943;28;20285;-41
2024/03/07 21:21:47;;;;;;;17.40;12.45;;;3.20;99.90;;;;;;20878251;28;20106;-42
2024/03/07 21:31:50;;;;;;;21.42;13.70;;;3.20;99.90;;;;;;20855716;28;20130;-42
2024/03/07 21:41:52;;;;;;;15.35;11.27;;;3.00;99.90;;;;;;20877753;28;20120;-45
2024/03/07 21:51:54;;;;;;;20.15;13.13;;;2.50;99.90;;;;;;20857340;28;20067;-49
2024/03/07 22:01:56;;;;;;;17.85;12.60;;;2.20;99.90;;;;;;20876212;28;21690;-42
2024/03/07 22:11:58;;;;;;;40.30;19.02;;;2.10;99.90;;;;;;20858648;28;20196;-45
2024/03/07 22:22:03;;;;;;;80.68;15.60;;;1.90;99.90;;;;;;20855361;28;20539;-42
2024/03/07 22:32:06;;;;;;;41.35;9.85;;;2.00;99.90;;;;;;20875092;28;20124;-42
2024/03/07 22:42:12;;;;;;;7.28;5.32;;;1.70;99.90;;;;;;20851851;28;21496;-41
2024/03/07 22:52:15;;;;;;;11.07;6.72;;;1.40;99.90;;;;;;20867789;28;20120;-41
2024/03/07 23:02:16;;;;;;;9.75;6.28;;;1.10;99.90;;;;;;20868465;28;20774;-41
2024/03/07 23:12:19;;;;;;;8.40;5.72;;;1.00;99.90;;;;;;20866127;28;20189;-43
2024/03/07 23:22:21;;;;;;;6.97;4.70;;;1.00;99.90;;;;;;20869402;28;20184;-43
2024/03/07 23:32:25;;;;;;;5.32;4.03;;;1.10;99.90;;;;;;20869809;28;20698;-41
2024/03/07 23:42:28;;;;;;;8.05;5.32;;;1.10;99.90;;;;;;20849560;28;20202;-43
2024/03/07 23:52:30;;;;;;;9.90;6.13;;;1.10;99.90;;;;;;20861081;28;20101;-40
